This is the latest recevied weather packets stored in our database for station/object WA6OOO. If no packets are shown the sender has not sent any weather packets the latest 10 day(s).
| Time | Temp. | Humidity | Pressure | Rain* | Wind** | Luminosity | Snow |
|---|---|---|---|---|---|---|---|
| 1777137570 | 17.78° C | 68% | 1015.8 hPa | 0 mm | - | 275 W/m² | - |
| 1777137268 | 17.78° C | 68% | 1015.9 hPa | 0 mm | - | 243 W/m² | - |
| 1777136965 | 17.78° C | 67% | 1015.7 hPa | 0 mm | - | 421 W/m² | - |
| 1777136661 | 17.78° C | 69% | 1015.7 hPa | 0 mm | - | 699 W/m² | - |
| 1777136359 | 17.22° C | 71% | 1015.7 hPa | 0 mm | - | 503 W/m² | - |
| 1777136056 | 17.22° C | 70% | 1015.9 hPa | 0 mm | - | 430 W/m² | - |
| 1777135752 | 16.67° C | 73% | 1015.9 hPa | 0 mm | - | 504 W/m² | - |
| 1777135449 | 16.67° C | 73% | 1016.1 hPa | 0 mm | - | 401 W/m² | - |
| 1777135145 | 15.56° C | 75% | 1016.1 hPa | 0 mm | - | 321 W/m² | - |
| 1777134842 | 15.56° C | 75% | 1016.1 hPa | 0 mm | - | 255 W/m² | - |
| 1777134543 | 15.56° C | 75% | 1016.1 hPa | 0 mm | - | 233 W/m² | - |
| 1777134240 | 16.11° C | 74% | 1015.9 hPa | 0 mm | - | 457 W/m² | - |
| 1777133936 | 16.11° C | 75% | 1015.9 hPa | 0 mm | - | 253 W/m² | - |
| 1777133633 | 15.56° C | 77% | 1015.9 hPa | 0 mm | - | 493 W/m² | - |
| 1777133331 | 15.56° C | 78% | 1016 hPa | 0 mm | - | 368 W/m² | - |
| 1777133026 | 15° C | 80% | 1016.2 hPa | 0 mm | - | 246 W/m² | - |
| 1777132722 | 15° C | 80% | 1016.2 hPa | 0 mm | - | 231 W/m² | - |
| 1777132419 | 14.44° C | 82% | 1016.3 hPa | 0 mm | - | 201 W/m² | - |
| 1777132116 | 14.44° C | 83% | 1016.2 hPa | 0 mm | - | 167 W/m² | - |
| 1777131812 | 13.89° C | 83% | 1016.4 hPa | 0 mm | - | 138 W/m² | - |
| 1777131509 | 14.44° C | 83% | 1016.1 hPa | 0 mm | - | 130 W/m² | - |
| 1777131209 | 13.89° C | 84% | 1016.4 hPa | 0 mm | - | 141 W/m² | - |
| 1777130904 | 14.44° C | 83% | 1016 hPa | 0 mm | - | 119 W/m² | - |
| 1777130600 | 14.44° C | 83% | 1016.1 hPa | 0 mm | - | 112 W/m² | - |
| 1777130297 | 13.89° C | 84% | 1016.1 hPa | 0 mm | - | 111 W/m² | - |
* Rain latest hour (hover to see other rain measurements)
** Current wind speed in m/s (hover to see current wind gust speed)